Terminal Aerodrome Forecast
Issued by NWS

Home | Current Version | Previous Version | Text Only | Print | Product List | Glossary On
Versions: 1 2 3 4 5 6 7 8 9 10 11 12 13 14
277
FTUS45 KRIW 211928 AAA
TAFBPI
TAF AMD
KBPI 211928Z 2119/2218 00000KT P6SM SCT100
     FM212100 32011G20KT P6SM SCT100
     FM220700 34006KT P6SM SKC=

USA.gov is the U.S. government's official web portal to all federal, state and local government web resources and services.